Bowmansville, New York
Current Conditions -  °F | °C
As of 11:03 AM on Thursday 27 Nov 2014 (Local Time) from KBUF Reporting Station
Light Snow Light Snow  
Wind Chill: -1°   Ceiling: 2700
Heat Index: -1°   Visibility: 3mi
Dew Point: -4°   Wind: 3mph
Humidity: 82%   Direction: 230°SW
Pressure: 30.07"   Gusts: NA
Location:  42.94°N, 78.68°W
Report Text: KBUF 271603Z 23003KT 3SM -SN BKN027 BKN034 BKN050 M01/M04 A3007 RMK AO2 P0000 T10111039
Loading
Personal Weather Stations






























Interactive Weather Map New forecast layout! Learn more

10-Day Weather Forecast

Advertisements
Track Severe Weather on mobile